sensor_id;sensor_type;location;lat;lon;timestamp;pressure;altitude;pressure_sealevel;temperature
76476;BMP280;65308;50.078;14.854;2023-08-31T00:00:07;98397.59;;;14.90
76476;BMP280;65308;50.078;14.854;2023-08-31T00:02:37;98405.44;;;14.88
76476;BMP280;65308;50.078;14.854;2023-08-31T00:05:04;98402.72;;;14.82
76476;BMP280;65308;50.078;14.854;2023-08-31T00:07:31;98405.91;;;14.81
76476;BMP280;65308;50.078;14.854;2023-08-31T00:09:58;98408.38;;;14.84
76476;BMP280;65308;50.078;14.854;2023-08-31T00:12:25;98411.78;;;14.85
76476;BMP280;65308;50.078;14.854;2023-08-31T00:14:55;98413.50;;;14.88
76476;BMP280;65308;50.078;14.854;2023-08-31T00:17:22;98416.47;;;14.90
76476;BMP280;65308;50.078;14.854;2023-08-31T00:19:50;98423.56;;;14.93
76476;BMP280;65308;50.078;14.854;2023-08-31T00:22:17;98421.63;;;14.93
76476;BMP280;65308;50.078;14.854;2023-08-31T00:24:44;98421.84;;;14.95
76476;BMP280;65308;50.078;14.854;2023-08-31T00:27:10;98422.59;;;14.96
76476;BMP280;65308;50.078;14.854;2023-08-31T00:29:37;98419.41;;;14.97
76476;BMP280;65308;50.078;14.854;2023-08-31T00:32:04;98424.06;;;14.97
76476;BMP280;65308;50.078;14.854;2023-08-31T00:34:31;98415.75;;;14.89
76476;BMP280;65308;50.078;14.854;2023-08-31T00:36:59;98424.31;;;14.93
76476;BMP280;65308;50.078;14.854;2023-08-31T00:39:25;98412.78;;;14.93
76476;BMP280;65308;50.078;14.854;2023-08-31T00:41:53;98407.38;;;14.93
76476;BMP280;65308;50.078;14.854;2023-08-31T00:44:21;98408.38;;;14.84
76476;BMP280;65308;50.078;14.854;2023-08-31T00:46:48;98411.53;;;14.88
76476;BMP280;65308;50.078;14.854;2023-08-31T00:49:15;98416.22;;;14.93
76476;BMP280;65308;50.078;14.854;2023-08-31T00:51:43;98413.03;;;14.89
76476;BMP280;65308;50.078;14.854;2023-08-31T00:54:15;98411.06;;;15.01
76476;BMP280;65308;50.078;14.854;2023-08-31T00:56:42;98417.47;;;15.09
76476;BMP280;65308;50.078;14.854;2023-08-31T00:59:10;98406.22;;;15.11
76476;BMP280;65308;50.078;14.854;2023-08-31T01:01:39;98412.56;;;15.19
76476;BMP280;65308;50.078;14.854;2023-08-31T01:04:17;98412.31;;;15.28
76476;BMP280;65308;50.078;14.854;2023-08-31T01:06:53;98413.78;;;15.35
76476;BMP280;65308;50.078;14.854;2023-08-31T01:09:29;98423.34;;;15.36
76476;BMP280;65308;50.078;14.854;2023-08-31T01:12:03;98420.91;;;15.38
76476;BMP280;65308;50.078;14.854;2023-08-31T01:14:34;98424.56;;;15.35
76476;BMP280;65308;50.078;14.854;2023-08-31T01:17:08;98415.00;;;15.28
76476;BMP280;65308;50.078;14.854;2023-08-31T01:19:43;98420.66;;;15.36
76476;BMP280;65308;50.078;14.854;2023-08-31T01:22:14;98424.09;;;15.36
76476;BMP280;65308;50.078;14.854;2023-08-31T01:24:45;98421.13;;;15.29
76476;BMP280;65308;50.078;14.854;2023-08-31T01:27:12;98420.66;;;15.30
76476;BMP280;65308;50.078;14.854;2023-08-31T01:29:39;98421.88;;;15.40
76476;BMP280;65308;50.078;14.854;2023-08-31T01:32:07;98422.34;;;15.50
76476;BMP280;65308;50.078;14.854;2023-08-31T01:34:34;98423.09;;;15.56
76476;BMP280;65308;50.078;14.854;2023-08-31T01:37:03;98419.44;;;15.59
76476;BMP280;65308;50.078;14.854;2023-08-31T01:39:35;98418.19;;;15.66
76476;BMP280;65308;50.078;14.854;2023-08-31T01:42:10;98420.38;;;15.73
76476;BMP280;65308;50.078;14.854;2023-08-31T01:44:39;98421.34;;;15.81
76476;BMP280;65308;50.078;14.854;2023-08-31T01:47:09;98420.38;;;15.84
76476;BMP280;65308;50.078;14.854;2023-08-31T01:49:37;98418.63;;;15.87
76476;BMP280;65308;50.078;14.854;2023-08-31T01:52:05;98419.13;;;15.91
76476;BMP280;65308;50.078;14.854;2023-08-31T01:54:33;98415.47;;;15.88
76476;BMP280;65308;50.078;14.854;2023-08-31T01:57:03;98424.31;;;15.83
76476;BMP280;65308;50.078;14.854;2023-08-31T01:59:33;98423.81;;;15.85
76476;BMP280;65308;50.078;14.854;2023-08-31T02:02:01;98421.09;;;15.85
76476;BMP280;65308;50.078;14.854;2023-08-31T02:04:28;98424.06;;;15.81
76476;BMP280;65308;50.078;14.854;2023-08-31T02:06:55;98426.75;;;15.75
76476;BMP280;65308;50.078;14.854;2023-08-31T02:09:21;98429.22;;;15.73
76476;BMP280;65308;50.078;14.854;2023-08-31T02:11:48;98422.81;;;15.71
76476;BMP280;65308;50.078;14.854;2023-08-31T02:14:15;98423.09;;;15.67
76476;BMP280;65308;50.078;14.854;2023-08-31T02:16:44;98416.00;;;15.70
76476;BMP280;65308;50.078;14.854;2023-08-31T02:19:11;98419.16;;;15.68
76476;BMP280;65308;50.078;14.854;2023-08-31T02:21:37;98413.31;;;15.64
76476;BMP280;65308;50.078;14.854;2023-08-31T02:24:06;98429.72;;;15.61
76476;BMP280;65308;50.078;14.854;2023-08-31T02:26:34;98424.59;;;15.57
76476;BMP280;65308;50.078;14.854;2023-08-31T02:29:01;98421.88;;;15.57
76476;BMP280;65308;50.078;14.854;2023-08-31T02:31:29;98423.56;;;15.55
76476;BMP280;65308;50.078;14.854;2023-08-31T02:33:58;98424.34;;;15.55
76476;BMP280;65308;50.078;14.854;2023-08-31T02:36:24;98422.59;;;15.52
76476;BMP280;65308;50.078;14.854;2023-08-31T02:38:51;98425.56;;;15.48
76476;BMP280;65308;50.078;14.854;2023-08-31T02:41:18;98436.34;;;15.43
76476;BMP280;65308;50.078;14.854;2023-08-31T02:43:45;98426.31;;;15.38
76476;BMP280;65308;50.078;14.854;2023-08-31T02:46:11;98440.75;;;15.35
76476;BMP280;65308;50.078;14.854;2023-08-31T02:48:38;98438.56;;;15.22
76476;BMP280;65308;50.078;14.854;2023-08-31T02:51:06;98429.22;;;15.12
76476;BMP280;65308;50.078;14.854;2023-08-31T02:53:33;98435.31;;;15.01
76476;BMP280;65308;50.078;14.854;2023-08-31T02:56:00;98435.56;;;14.92
76476;BMP280;65308;50.078;14.854;2023-08-31T02:58:27;98434.31;;;14.87
76476;BMP280;65308;50.078;14.854;2023-08-31T03:00:54;98425.97;;;14.85
76476;BMP280;65308;50.078;14.854;2023-08-31T03:03:21;98425.25;;;14.85
76476;BMP280;65308;50.078;14.854;2023-08-31T03:05:48;98427.47;;;14.92
76476;BMP280;65308;50.078;14.854;2023-08-31T03:08:16;98421.84;;;14.95
76476;BMP280;65308;50.078;14.854;2023-08-31T03:10:44;98423.09;;;15.00
76476;BMP280;65308;50.078;14.854;2023-08-31T03:13:11;98424.06;;;15.08
76476;BMP280;65308;50.078;14.854;2023-08-31T03:15:38;98424.81;;;15.14
76476;BMP280;65308;50.078;14.854;2023-08-31T03:18:05;98422.84;;;15.09
76476;BMP280;65308;50.078;14.854;2023-08-31T03:20:32;98421.16;;;15.12
76476;BMP280;65308;50.078;14.854;2023-08-31T03:22:58;98426.28;;;15.10
76476;BMP280;65308;50.078;14.854;2023-08-31T03:25:28;98428.00;;;15.13
76476;BMP280;65308;50.078;14.854;2023-08-31T03:27:55;98432.66;;;15.12
76476;BMP280;65308;50.078;14.854;2023-08-31T03:30:22;98433.88;;;15.17
76476;BMP280;65308;50.078;14.854;2023-08-31T03:32:50;98441.00;;;15.25
76476;BMP280;65308;50.078;14.854;2023-08-31T03:35:17;98441.97;;;15.28
76476;BMP280;65308;50.078;14.854;2023-08-31T03:37:46;98441.72;;;15.26
76476;BMP280;65308;50.078;14.854;2023-08-31T03:40:13;98447.16;;;15.32
76476;BMP280;65308;50.078;14.854;2023-08-31T03:42:41;98445.41;;;15.40
76476;BMP280;65308;50.078;14.854;2023-08-31T03:45:08;98442.50;;;15.43
76476;BMP280;65308;50.078;14.854;2023-08-31T03:47:35;98448.13;;;15.62
76476;BMP280;65308;50.078;14.854;2023-08-31T03:50:03;98446.41;;;15.65
76476;BMP280;65308;50.078;14.854;2023-08-31T03:52:30;98446.13;;;15.68
76476;BMP280;65308;50.078;14.854;2023-08-31T03:54:56;98453.03;;;15.69
76476;BMP280;65308;50.078;14.854;2023-08-31T03:57:24;98452.28;;;15.74
76476;BMP280;65308;50.078;14.854;2023-08-31T03:59:52;98449.06;;;15.76
76476;BMP280;65308;50.078;14.854;2023-08-31T04:02:19;98458.16;;;15.79
76476;BMP280;65308;50.078;14.854;2023-08-31T04:04:45;98457.41;;;15.84
76476;BMP280;65308;50.078;14.854;2023-08-31T04:07:13;98461.06;;;15.92
76476;BMP280;65308;50.078;14.854;2023-08-31T04:09:40;98458.84;;;15.96
76476;BMP280;65308;50.078;14.854;2023-08-31T04:12:06;98452.22;;;16.03
76476;BMP280;65308;50.078;14.854;2023-08-31T04:14:33;98458.06;;;16.07
76476;BMP280;65308;50.078;14.854;2023-08-31T04:17:02;98466.44;;;16.14
76476;BMP280;65308;50.078;14.854;2023-08-31T04:19:30;98467.13;;;16.20
76476;BMP280;65308;50.078;14.854;2023-08-31T04:21:56;98464.44;;;16.26
76476;BMP280;65308;50.078;14.854;2023-08-31T04:24:23;98472.50;;;16.32
76476;BMP280;65308;50.078;14.854;2023-08-31T04:26:50;98472.75;;;16.34
76476;BMP280;65308;50.078;14.854;2023-08-31T04:29:17;98472.72;;;16.39
76476;BMP280;65308;50.078;14.854;2023-08-31T04:31:43;98476.16;;;16.45
76476;BMP280;65308;50.078;14.854;2023-08-31T04:34:11;98479.50;;;16.51
76476;BMP280;65308;50.078;14.854;2023-08-31T04:36:38;98484.19;;;16.57
76476;BMP280;65308;50.078;14.854;2023-08-31T04:39:05;98488.81;;;16.62
76476;BMP280;65308;50.078;14.854;2023-08-31T04:41:33;98486.59;;;16.66
76476;BMP280;65308;50.078;14.854;2023-08-31T04:44:00;98493.00;;;16.68
76476;BMP280;65308;50.078;14.854;2023-08-31T04:46:27;98499.56;;;16.73
76476;BMP280;65308;50.078;14.854;2023-08-31T04:48:53;98510.88;;;16.71
76476;BMP280;65308;50.078;14.854;2023-08-31T04:51:34;98516.53;;;16.73
76476;BMP280;65308;50.078;14.854;2023-08-31T04:54:02;98519.50;;;16.75
76476;BMP280;65308;50.078;14.854;2023-08-31T04:56:30;98528.56;;;16.78
76476;BMP280;65308;50.078;14.854;2023-08-31T04:58:57;98520.44;;;16.78
76476;BMP280;65308;50.078;14.854;2023-08-31T05:01:24;98541.06;;;16.81
76476;BMP280;65308;50.078;14.854;2023-08-31T05:03:51;98536.63;;;16.84
76476;BMP280;65308;50.078;14.854;2023-08-31T05:06:18;98536.16;;;16.85
76476;BMP280;65308;50.078;14.854;2023-08-31T05:08:48;98540.06;;;16.90
76476;BMP280;65308;50.078;14.854;2023-08-31T05:11:16;98542.75;;;16.90
76476;BMP280;65308;50.078;14.854;2023-08-31T05:13:42;98551.38;;;16.83
76476;BMP280;65308;50.078;14.854;2023-08-31T05:16:09;98542.31;;;16.80
76476;BMP280;65308;50.078;14.854;2023-08-31T05:18:37;98546.25;;;16.79
76476;BMP280;65308;50.078;14.854;2023-08-31T05:21:05;98550.66;;;16.76
76476;BMP280;65308;50.078;14.854;2023-08-31T05:23:32;98556.31;;;16.79
76476;BMP280;65308;50.078;14.854;2023-08-31T05:26:01;98557.06;;;16.73
76476;BMP280;65308;50.078;14.854;2023-08-31T05:28:28;98561.00;;;16.67
76476;BMP280;65308;50.078;14.854;2023-08-31T05:30:56;98560.53;;;16.63
76476;BMP280;65308;50.078;14.854;2023-08-31T05:33:24;98563.06;;;16.49
76476;BMP280;65308;50.078;14.854;2023-08-31T05:35:54;98560.09;;;16.42
76476;BMP280;65308;50.078;14.854;2023-08-31T05:38:21;98556.19;;;16.32
76476;BMP280;65308;50.078;14.854;2023-08-31T05:40:48;98571.16;;;16.33
76476;BMP280;65308;50.078;14.854;2023-08-31T05:43:17;98573.59;;;16.42
76476;BMP280;65308;50.078;14.854;2023-08-31T05:45:43;98584.22;;;16.29
76476;BMP280;65308;50.078;14.854;2023-08-31T05:48:11;98584.94;;;16.18
76476;BMP280;65308;50.078;14.854;2023-08-31T05:50:38;98579.81;;;16.14
76476;BMP280;65308;50.078;14.854;2023-08-31T05:53:05;98589.88;;;16.19
76476;BMP280;65308;50.078;14.854;2023-08-31T05:55:33;98583.47;;;16.22
76476;BMP280;65308;50.078;14.854;2023-08-31T05:58:00;98583.97;;;16.21
76476;BMP280;65308;50.078;14.854;2023-08-31T06:00:29;98591.81;;;16.24
76476;BMP280;65308;50.078;14.854;2023-08-31T06:02:56;98600.16;;;16.38
76476;BMP280;65308;50.078;14.854;2023-08-31T06:05:23;98585.41;;;16.50
76476;BMP280;65308;50.078;14.854;2023-08-31T06:07:49;98596.88;;;16.67
76476;BMP280;65308;50.078;14.854;2023-08-31T06:10:17;98606.91;;;16.84
76476;BMP280;65308;50.078;14.854;2023-08-31T06:12:44;98605.66;;;16.90
76476;BMP280;65308;50.078;14.854;2023-08-31T06:15:11;98602.91;;;16.96
76476;BMP280;65308;50.078;14.854;2023-08-31T06:17:39;98602.66;;;17.05
76476;BMP280;65308;50.078;14.854;2023-08-31T06:20:07;98613.19;;;17.14
76476;BMP280;65308;50.078;14.854;2023-08-31T06:22:34;98620.56;;;17.14
76476;BMP280;65308;50.078;14.854;2023-08-31T06:25:01;98630.59;;;17.19
76476;BMP280;65308;50.078;14.854;2023-08-31T06:27:28;98637.44;;;17.25
76476;BMP280;65308;50.078;14.854;2023-08-31T06:29:54;98632.47;;;17.29
76476;BMP280;65308;50.078;14.854;2023-08-31T06:32:21;98638.16;;;17.32
76476;BMP280;65308;50.078;14.854;2023-08-31T06:34:49;98634.69;;;17.37
76476;BMP280;65308;50.078;14.854;2023-08-31T06:37:16;98632.47;;;17.35
76476;BMP280;65308;50.078;14.854;2023-08-31T06:39:43;98620.66;;;17.38
76476;BMP280;65308;50.078;14.854;2023-08-31T06:42:09;98637.59;;;17.44
76476;BMP280;65308;50.078;14.854;2023-08-31T06:44:36;98630.41;;;17.52
76476;BMP280;65308;50.078;14.854;2023-08-31T06:47:06;98635.56;;;17.56
76476;BMP280;65308;50.078;14.854;2023-08-31T06:49:43;98634.25;;;17.63
76476;BMP280;65308;50.078;14.854;2023-08-31T06:52:11;98627.88;;;17.66
76476;BMP280;65308;50.078;14.854;2023-08-31T06:54:38;98632.56;;;17.65
76476;BMP280;65308;50.078;14.854;2023-08-31T06:57:04;98628.09;;;17.68
76476;BMP280;65308;50.078;14.854;2023-08-31T06:59:31;98632.22;;;17.80
76476;BMP280;65308;50.078;14.854;2023-08-31T07:01:57;98637.19;;;18.30
76476;BMP280;65308;50.078;14.854;2023-08-31T07:04:26;98634.59;;;18.87
76476;BMP280;65308;50.078;14.854;2023-08-31T07:06:53;98640.06;;;19.06
76476;BMP280;65308;50.078;14.854;2023-08-31T07:09:21;98640.16;;;19.32
76476;BMP280;65308;50.078;14.854;2023-08-31T07:11:48;98644.53;;;19.73
76476;BMP280;65308;50.078;14.854;2023-08-31T07:14:14;98669.38;;;21.57
76476;BMP280;65308;50.078;14.854;2023-08-31T07:16:41;98651.63;;;23.01
76476;BMP280;65308;50.078;14.854;2023-08-31T07:19:10;98649.28;;;24.04
76476;BMP280;65308;50.078;14.854;2023-08-31T07:21:37;98665.75;;;24.85
76476;BMP280;65308;50.078;14.854;2023-08-31T07:24:04;98662.44;;;27.11
76476;BMP280;65308;50.078;14.854;2023-08-31T07:26:32;98669.25;;;27.76
76476;BMP280;65308;50.078;14.854;2023-08-31T07:29:00;98667.81;;;28.04
76476;BMP280;65308;50.078;14.854;2023-08-31T07:31:27;98681.63;;;28.95
76476;BMP280;65308;50.078;14.854;2023-08-31T07:33:53;98688.94;;;31.00
76476;BMP280;65308;50.078;14.854;2023-08-31T07:36:20;98683.53;;;31.14
76476;BMP280;65308;50.078;14.854;2023-08-31T07:38:46;98682.66;;;31.23
76476;BMP280;65308;50.078;14.854;2023-08-31T07:41:13;98687.84;;;32.85
76476;BMP280;65308;50.078;14.854;2023-08-31T07:43:41;98684.75;;;33.20
76476;BMP280;65308;50.078;14.854;2023-08-31T07:46:08;98699.00;;;34.66
76476;BMP280;65308;50.078;14.854;2023-08-31T07:48:35;98712.28;;;36.10
76476;BMP280;65308;50.078;14.854;2023-08-31T07:51:01;98714.69;;;37.22
76476;BMP280;65308;50.078;14.854;2023-08-31T07:53:38;98708.56;;;38.25
76476;BMP280;65308;50.078;14.854;2023-08-31T07:56:04;98713.59;;;39.17
76476;BMP280;65308;50.078;14.854;2023-08-31T07:58:43;98714.00;;;40.05
76476;BMP280;65308;50.078;14.854;2023-08-31T08:01:10;98718.84;;;40.85
76476;BMP280;65308;50.078;14.854;2023-08-31T08:03:37;98724.47;;;41.35
76476;BMP280;65308;50.078;14.854;2023-08-31T08:06:04;98734.84;;;41.81
76476;BMP280;65308;50.078;14.854;2023-08-31T08:08:31;98727.72;;;42.46
76476;BMP280;65308;50.078;14.854;2023-08-31T08:10:58;98734.38;;;42.91
76476;BMP280;65308;50.078;14.854;2023-08-31T08:13:25;98716.78;;;42.93
76476;BMP280;65308;50.078;14.854;2023-08-31T08:15:55;98716.53;;;40.71
76476;BMP280;65308;50.078;14.854;2023-08-31T08:18:22;98719.19;;;39.17
76476;BMP280;65308;50.078;14.854;2023-08-31T08:20:50;98716.19;;;36.84
76476;BMP280;65308;50.078;14.854;2023-08-31T08:23:19;98733.25;;;36.72
76476;BMP280;65308;50.078;14.854;2023-08-31T08:25:47;98718.91;;;34.94
76476;BMP280;65308;50.078;14.854;2023-08-31T08:28:13;98713.69;;;34.69
76476;BMP280;65308;50.078;14.854;2023-08-31T08:30:40;98733.88;;;35.20
76476;BMP280;65308;50.078;14.854;2023-08-31T08:33:09;98732.84;;;35.83
76476;BMP280;65308;50.078;14.854;2023-08-31T08:35:37;98726.91;;;35.19
76476;BMP280;65308;50.078;14.854;2023-08-31T08:38:04;98739.34;;;36.07
76476;BMP280;65308;50.078;14.854;2023-08-31T08:40:30;98730.31;;;35.53
76476;BMP280;65308;50.078;14.854;2023-08-31T08:43:00;98732.19;;;36.22
76476;BMP280;65308;50.078;14.854;2023-08-31T08:45:35;98735.84;;;36.46
76476;BMP280;65308;50.078;14.854;2023-08-31T08:48:05;98722.28;;;34.75
76476;BMP280;65308;50.078;14.854;2023-08-31T08:50:35;98732.66;;;34.90
76476;BMP280;65308;50.078;14.854;2023-08-31T08:53:03;98727.88;;;34.92
76476;BMP280;65308;50.078;14.854;2023-08-31T08:55:30;98733.28;;;35.22
76476;BMP280;65308;50.078;14.854;2023-08-31T08:57:58;98729.22;;;35.25
76476;BMP280;65308;50.078;14.854;2023-08-31T09:00:25;98724.44;;;34.60
76476;BMP280;65308;50.078;14.854;2023-08-31T09:02:52;98725.88;;;33.40
76476;BMP280;65308;50.078;14.854;2023-08-31T09:05:18;98724.44;;;32.29
76476;BMP280;65308;50.078;14.854;2023-08-31T09:08:02;98723.44;;;30.76
76476;BMP280;65308;50.078;14.854;2023-08-31T09:10:39;98723.94;;;29.30
76476;BMP280;65308;50.078;14.854;2023-08-31T09:13:06;98724.34;;;28.74
76476;BMP280;65308;50.078;14.854;2023-08-31T09:15:40;98726.88;;;28.03
76476;BMP280;65308;50.078;14.854;2023-08-31T09:18:07;98729.41;;;27.52
76476;BMP280;65308;50.078;14.854;2023-08-31T09:20:45;98738.66;;;27.47
76476;BMP280;65308;50.078;14.854;2023-08-31T09:23:13;98728.69;;;27.15
76476;BMP280;65308;50.078;14.854;2023-08-31T09:25:44;98736.28;;;27.34
76476;BMP280;65308;50.078;14.854;2023-08-31T09:28:13;98732.41;;;27.37
76476;BMP280;65308;50.078;14.854;2023-08-31T09:30:41;98741.16;;;27.62
76476;BMP280;65308;50.078;14.854;2023-08-31T09:33:08;98728.56;;;27.59
76476;BMP280;65308;50.078;14.854;2023-08-31T09:35:51;98739.03;;;27.80
76476;BMP280;65308;50.078;14.854;2023-08-31T09:38:19;98742.72;;;27.56
76476;BMP280;65308;50.078;14.854;2023-08-31T09:40:46;98751.97;;;27.51
76476;BMP280;65308;50.078;14.854;2023-08-31T09:43:19;98749.63;;;27.38
76476;BMP280;65308;50.078;14.854;2023-08-31T09:45:47;98757.03;;;27.18
76476;BMP280;65308;50.078;14.854;2023-08-31T09:48:14;98759.16;;;26.38
76476;BMP280;65308;50.078;14.854;2023-08-31T09:50:43;98750.25;;;26.65
76476;BMP280;65308;50.078;14.854;2023-08-31T09:53:11;98764.63;;;26.56
76476;BMP280;65308;50.078;14.854;2023-08-31T09:55:40;98751.06;;;26.23
76476;BMP280;65308;50.078;14.854;2023-08-31T09:58:07;98751.88;;;26.33
76476;BMP280;65308;50.078;14.854;2023-08-31T10:00:36;98749.50;;;26.64
76476;BMP280;65308;50.078;14.854;2023-08-31T10:03:04;98756.63;;;26.67
76476;BMP280;65308;50.078;14.854;2023-08-31T10:05:31;98759.44;;;25.90
76476;BMP280;65308;50.078;14.854;2023-08-31T10:07:59;98757.31;;;25.56
76476;BMP280;65308;50.078;14.854;2023-08-31T10:10:30;98769.06;;;25.49
76476;BMP280;65308;50.078;14.854;2023-08-31T10:13:00;98770.03;;;25.37
76476;BMP280;65308;50.078;14.854;2023-08-31T10:15:31;98762.97;;;24.93
76476;BMP280;65308;50.078;14.854;2023-08-31T10:17:59;98770.28;;;24.91
76476;BMP280;65308;50.078;14.854;2023-08-31T10:20:27;98776.25;;;24.64
76476;BMP280;65308;50.078;14.854;2023-08-31T10:22:57;98769.44;;;24.73
76476;BMP280;65308;50.078;14.854;2023-08-31T10:25:23;98766.69;;;24.73
76476;BMP280;65308;50.078;14.854;2023-08-31T10:27:52;98765.56;;;24.84
76476;BMP280;65308;50.078;14.854;2023-08-31T10:30:27;98765.09;;;25.10
76476;BMP280;65308;50.078;14.854;2023-08-31T10:33:21;98773.88;;;25.41
76476;BMP280;65308;50.078;14.854;2023-08-31T10:35:51;98767.09;;;25.67
76476;BMP280;65308;50.078;14.854;2023-08-31T10:38:24;98769.22;;;25.76
76476;BMP280;65308;50.078;14.854;2023-08-31T10:41:19;98778.00;;;25.75
76476;BMP280;65308;50.078;14.854;2023-08-31T10:43:47;98773.03;;;25.56
76476;BMP280;65308;50.078;14.854;2023-08-31T10:46:18;98784.00;;;25.23
76476;BMP280;65308;50.078;14.854;2023-08-31T10:48:53;98785.22;;;25.38
76476;BMP280;65308;50.078;14.854;2023-08-31T10:51:28;98790.50;;;25.35
76476;BMP280;65308;50.078;14.854;2023-08-31T10:54:05;98790.88;;;25.40
76476;BMP280;65308;50.078;14.854;2023-08-31T10:56:32;98786.00;;;25.55
76476;BMP280;65308;50.078;14.854;2023-08-31T10:59:00;98792.22;;;25.56
76476;BMP280;65308;50.078;14.854;2023-08-31T11:01:53;98786.78;;;25.48
76476;BMP280;65308;50.078;14.854;2023-08-31T11:04:21;98781.00;;;25.37
76476;BMP280;65308;50.078;14.854;2023-08-31T11:06:48;98779.44;;;25.26
76476;BMP280;65308;50.078;14.854;2023-08-31T11:09:19;98775.50;;;25.12
76476;BMP280;65308;50.078;14.854;2023-08-31T11:11:45;98772.16;;;24.81
76476;BMP280;65308;50.078;14.854;2023-08-31T11:14:13;98778.63;;;24.53
76476;BMP280;65308;50.078;14.854;2023-08-31T11:16:40;98784.44;;;24.49
76476;BMP280;65308;50.078;14.854;2023-08-31T11:19:08;98768.09;;;24.26
76476;BMP280;65308;50.078;14.854;2023-08-31T11:21:36;98772.50;;;23.99
76476;BMP280;65308;50.078;14.854;2023-08-31T11:24:07;98768.66;;;23.86
76476;BMP280;65308;50.078;14.854;2023-08-31T11:26:34;98762.09;;;23.82
76476;BMP280;65308;50.078;14.854;2023-08-31T11:29:00;98765.75;;;23.77
76476;BMP280;65308;50.078;14.854;2023-08-31T11:31:27;98762.63;;;23.65
76476;BMP280;65308;50.078;14.854;2023-08-31T11:33:54;98761.72;;;23.70
76476;BMP280;65308;50.078;14.854;2023-08-31T11:36:24;98766.09;;;23.73
76476;BMP280;65308;50.078;14.854;2023-08-31T11:38:52;98763.91;;;23.79
76476;BMP280;65308;50.078;14.854;2023-08-31T11:41:19;98759.88;;;23.57
76476;BMP280;65308;50.078;14.854;2023-08-31T11:43:47;98764.75;;;23.36
76476;BMP280;65308;50.078;14.854;2023-08-31T11:46:19;98752.38;;;23.35
76476;BMP280;65308;50.078;14.854;2023-08-31T11:48:45;98757.84;;;23.43
76476;BMP280;65308;50.078;14.854;2023-08-31T11:51:12;98753.28;;;23.45
76476;BMP280;65308;50.078;14.854;2023-08-31T11:53:42;98747.81;;;23.30
76476;BMP280;65308;50.078;14.854;2023-08-31T11:56:09;98758.34;;;23.33
76476;BMP280;65308;50.078;14.854;2023-08-31T11:58:40;98772.78;;;23.42
76476;BMP280;65308;50.078;14.854;2023-08-31T12:01:08;98786.56;;;23.21
76476;BMP280;65308;50.078;14.854;2023-08-31T12:03:42;98788.28;;;22.67
76476;BMP280;65308;50.078;14.854;2023-08-31T12:06:09;98790.84;;;22.44
76476;BMP280;65308;50.078;14.854;2023-08-31T12:08:36;98797.09;;;22.52
76476;BMP280;65308;50.078;14.854;2023-08-31T12:11:07;98811.22;;;22.01
76476;BMP280;65308;50.078;14.854;2023-08-31T12:13:34;98795.00;;;21.95
76476;BMP280;65308;50.078;14.854;2023-08-31T12:16:01;98796.22;;;22.08
76476;BMP280;65308;50.078;14.854;2023-08-31T12:18:30;98790.63;;;21.92
76476;BMP280;65308;50.078;14.854;2023-08-31T12:20:57;98788.06;;;21.94
76476;BMP280;65308;50.078;14.854;2023-08-31T12:23:24;98792.19;;;22.09
76476;BMP280;65308;50.078;14.854;2023-08-31T12:25:52;98788.59;;;22.14
76476;BMP280;65308;50.078;14.854;2023-08-31T12:28:21;98783.97;;;22.22
76476;BMP280;65308;50.078;14.854;2023-08-31T12:30:52;98787.69;;;22.11
76476;BMP280;65308;50.078;14.854;2023-08-31T12:33:24;98783.00;;;22.12
76476;BMP280;65308;50.078;14.854;2023-08-31T12:35:51;98789.28;;;22.07
76476;BMP280;65308;50.078;14.854;2023-08-31T12:38:21;98785.63;;;22.25
76476;BMP280;65308;50.078;14.854;2023-08-31T12:40:48;98782.88;;;22.25
76476;BMP280;65308;50.078;14.854;2023-08-31T12:43:16;98786.53;;;22.27
76476;BMP280;65308;50.078;14.854;2023-08-31T12:45:44;98783.34;;;22.37
76476;BMP280;65308;50.078;14.854;2023-08-31T12:48:15;98780.75;;;22.52
76476;BMP280;65308;50.078;14.854;2023-08-31T12:50:41;98789.00;;;22.67
76476;BMP280;65308;50.078;14.854;2023-08-31T12:53:08;98795.13;;;22.89
76476;BMP280;65308;50.078;14.854;2023-08-31T12:55:35;98795.31;;;22.91
76476;BMP280;65308;50.078;14.854;2023-08-31T12:58:03;98799.41;;;23.12
76476;BMP280;65308;50.078;14.854;2023-08-31T13:00:30;98802.53;;;23.17
76476;BMP280;65308;50.078;14.854;2023-08-31T13:02:59;98800.31;;;23.15
76476;BMP280;65308;50.078;14.854;2023-08-31T13:05:26;98798.19;;;23.21
76476;BMP280;65308;50.078;14.854;2023-08-31T13:07:54;98783.84;;;23.28
76476;BMP280;65308;50.078;14.854;2023-08-31T13:10:21;98787.88;;;23.35
76476;BMP280;65308;50.078;14.854;2023-08-31T13:12:47;98793.00;;;23.46
76476;BMP280;65308;50.078;14.854;2023-08-31T13:15:14;98791.38;;;23.51
76476;BMP280;65308;50.078;14.854;2023-08-31T13:17:41;98787.91;;;23.50
76476;BMP280;65308;50.078;14.854;2023-08-31T13:20:10;98777.53;;;23.49
76476;BMP280;65308;50.078;14.854;2023-08-31T13:22:37;98790.63;;;23.50
76476;BMP280;65308;50.078;14.854;2023-08-31T13:25:05;98780.25;;;23.49
76476;BMP280;65308;50.078;14.854;2023-08-31T13:27:31;98771.16;;;23.46
76476;BMP280;65308;50.078;14.854;2023-08-31T13:29:59;98784.22;;;23.40
76476;BMP280;65308;50.078;14.854;2023-08-31T13:32:26;98769.16;;;23.47
76476;BMP280;65308;50.078;14.854;2023-08-31T13:34:53;98778.25;;;23.49
76476;BMP280;65308;50.078;14.854;2023-08-31T13:37:21;98771.19;;;23.54
76476;BMP280;65308;50.078;14.854;2023-08-31T13:39:50;98776.44;;;23.52
76476;BMP280;65308;50.078;14.854;2023-08-31T13:42:16;98770.81;;;23.57
76476;BMP280;65308;50.078;14.854;2023-08-31T13:44:43;98768.97;;;23.52
76476;BMP280;65308;50.078;14.854;2023-08-31T13:47:10;98769.69;;;23.53
76476;BMP280;65308;50.078;14.854;2023-08-31T13:49:36;98768.22;;;23.44
76476;BMP280;65308;50.078;14.854;2023-08-31T13:52:04;98781.47;;;23.25
76476;BMP280;65308;50.078;14.854;2023-08-31T13:54:33;98783.94;;;23.15
76476;BMP280;65308;50.078;14.854;2023-08-31T13:57:00;98786.88;;;23.09
76476;BMP280;65308;50.078;14.854;2023-08-31T13:59:26;98785.44;;;23.16
76476;BMP280;65308;50.078;14.854;2023-08-31T14:01:54;98777.75;;;23.07